Time;durP1;ratioP1;P1;durP2;ratioP2;P2;SDS_P1;SDS_P2;PMS_P1;PMS_P2;Temp;Humidity;BMP_temperature;BMP_pressure;BME280_temperature;BME280_humidity;BME280_pressure;Samples;Min_cycle;Max_cycle;Signal;HPM_P1;HPM_P2
2022/11/05 00:10:24;;;;;;;;;5.67;5.00;;;;;23.17;43.63;101729.72;5019531;28;46134;-72
2022/11/05 00:18:19;;;;;;;;;4.00;4.00;;;;;23.12;43.36;101703.69;5028252;28;45346;-72
2022/11/05 00:20:45;;;;;;;;;5.00;4.00;;;;;23.12;43.49;101709.00;5028248;28;45305;-72
2022/11/05 00:25:58;;;;;;;;;4.00;4.00;;;;;23.22;43.53;101721.25;5032160;28;45516;-72
2022/11/05 00:28:24;;;;;;;;;7.33;4.00;;;;;23.23;43.29;101714.97;5024638;28;45445;-72
2022/11/05 00:30:50;;;;;;;;;6.00;5.00;;;;;23.24;43.60;101708.63;5017576;28;45487;-72
2022/11/05 00:33:15;;;;;;;;;3.67;3.67;;;;;23.25;43.65;101719.09;5021722;28;47154;-72
2022/11/05 00:35:41;;;;;;;;;5.33;4.00;;;;;23.25;43.49;101718.28;5021757;28;45356;-72
2022/11/05 00:38:06;;;;;;;;;3.00;3.00;;;;;23.25;43.27;101712.97;5017524;28;45556;-72
2022/11/05 00:40:32;;;;;;;;;4.00;4.00;;;;;23.24;43.01;101719.25;5027152;28;45306;-72
2022/11/05 00:45:41;;;;;;;;;3.33;3.33;;;;;23.25;43.33;101719.09;5017948;28;45441;-72
2022/11/05 00:50:50;;;;;;;;;4.33;3.67;;;;;23.25;43.43;101720.94;5022173;28;45380;-72
2022/11/05 00:53:15;;;;;;;;;4.33;4.33;;;;;23.25;43.05;101718.28;5029989;28;46776;-72
2022/11/05 00:55:43;;;;;;;;;4.33;3.00;;;;;23.24;42.84;101722.75;5022784;28;45364;-72
2022/11/05 00:58:20;;;;;;;;;6.00;4.33;;;;;23.23;42.92;101720.28;5023958;28;45384;-72
2022/11/05 01:00:54;;;;;;;;;3.33;3.33;;;;;23.24;42.98;101727.22;5017330;28;45404;-72
2022/11/05 01:03:23;;;;;;;;;5.33;5.33;;;;;23.24;43.40;101730.72;5029661;28;45368;-72
2022/11/05 01:05:54;;;;;;;;;3.33;3.33;;;;;23.24;42.91;101728.06;5024927;28;45246;-72
2022/11/05 01:08:22;;;;;;;;;4.00;4.00;;;;;23.23;43.14;101723.75;5022518;28;45405;-72
2022/11/05 01:10:50;;;;;;;;;4.33;4.33;;;;;23.21;42.72;101714.31;5022783;28;45469;-72
2022/11/05 01:13:18;;;;;;;;;4.33;4.33;;;;;23.22;42.81;101715.94;5028907;28;46216;-72
2022/11/05 01:15:44;;;;;;;;;6.00;4.00;;;;;23.22;43.46;101715.94;5022976;28;45369;-72
2022/11/05 01:18:10;;;;;;;;;5.00;5.00;;;;;23.21;42.95;101711.66;5036811;28;45341;-72
2022/11/05 01:20:35;;;;;;;;;5.00;5.00;;;;;23.17;43.08;101698.72;5036286;28;45354;-72
2022/11/05 01:23:01;;;;;;;;;3.67;3.67;;;;;23.20;43.41;101708.16;5036936;28;45418;-72
2022/11/05 01:25:26;;;;;;;;;4.00;4.00;;;;;23.19;43.18;101709.16;5036215;28;45774;-72
2022/11/05 01:27:51;;;;;;;;;4.00;4.00;;;;;23.14;43.22;101701.69;5037294;28;45305;-73
2022/11/05 01:30:17;;;;;;;;;4.33;4.33;;;;;23.14;43.22;101701.69;5037152;28;45287;-72
2022/11/05 01:32:42;;;;;;;;;5.67;5.00;;;;;23.18;43.14;101699.53;5036463;28;46114;-72
2022/11/05 01:35:11;;;;;;;;;5.00;5.00;;;;;23.18;42.65;101704.84;5036770;28;45359;-72
2022/11/05 01:37:38;;;;;;;;;4.00;4.00;;;;;23.06;42.96;101691.91;5036644;28;45313;-72
2022/11/05 01:40:04;;;;;;;;;4.00;3.67;;;;;23.18;43.10;101710.16;5036096;28;45356;-72
2022/11/05 01:42:31;;;;;;;;;5.00;3.67;;;;;23.18;42.73;101710.16;5034875;28;45351;-72
2022/11/05 01:45:05;;;;;;;;;4.00;4.00;;;;;23.16;43.03;101702.34;5035917;28;45379;-73
2022/11/05 01:47:33;;;;;;;;;6.00;4.67;;;;;23.14;43.00;101707.00;5035910;28;45455;-72
2022/11/05 01:50:05;;;;;;;;;0.00;0.00;;;;;23.13;42.95;101708.00;5022328;28;45356;-73
2022/11/05 01:52:34;;;;;;;;;6.33;4.33;;;;;23.05;43.19;101706.19;5031346;28;47393;-72
2022/11/05 01:55:01;;;;;;;;;7.00;3.67;;;;;23.13;43.15;101715.13;5026240;28;45418;-72
2022/11/05 01:57:28;;;;;;;;;4.00;4.00;;;;;23.15;43.20;101721.09;5029273;28;45338;-70
2022/11/05 01:59:57;;;;;;;;;3.67;3.67;;;;;23.16;42.60;101714.81;5021118;28;45380;-72
2022/11/05 02:02:24;;;;;;;;;4.00;4.00;;;;;23.17;43.14;101716.44;5016354;28;46230;-71
2022/11/05 02:05:09;;;;;;;;;3.67;3.67;;;;;23.17;42.89;101725.25;5016353;28;45394;-70
2022/11/05 02:07:35;;;;;;;;;4.00;4.00;;;;;23.16;42.65;101726.25;5039686;28;45506;-72
2022/11/05 02:10:04;;;;;;;;;4.00;4.00;;;;;23.15;43.03;101729.06;5021477;28;45282;-72
2022/11/05 02:12:33;;;;;;;;;4.00;2.67;;;;;23.18;42.93;101734.06;5021197;28;46314;-72
2022/11/05 02:14:58;;;;;;;;;3.67;3.67;;;;;23.17;42.66;101727.91;5016206;28;45371;-71
2022/11/05 02:17:45;;;;;;;;;7.00;5.67;;;;;23.18;42.88;101728.75;5017539;28;45270;-71
2022/11/05 02:20:28;;;;;;;;;6.67;4.00;;;;;23.16;42.81;101720.13;5023241;28;45345;-72
2022/11/05 02:23:12;;;;;;;;;5.67;3.67;;;;;23.15;43.15;101724.59;5020936;28;46146;-72
2022/11/05 02:26:09;;;;;;;;;4.00;4.00;;;;;23.14;42.70;101720.28;5015516;28;45424;-72
2022/11/05 02:28:49;;;;;;;;;4.00;3.33;;;;;23.10;42.84;101712.81;5006979;28;45467;-72
2022/11/05 02:31:32;;;;;;;;;3.33;3.33;;;;;23.13;42.45;101718.63;5013672;28;45611;-71
2022/11/05 02:34:17;;;;;;;;;4.00;4.00;;;;;23.13;42.93;101717.78;5013263;28;47677;-71
2022/11/05 02:36:55;;;;;;;;;4.00;4.00;;;;;23.13;43.17;101723.09;5013653;28;45677;-72
2022/11/05 02:39:36;;;;;;;;;4.00;4.00;;;;;23.13;42.76;101717.78;5013118;28;45441;-72
2022/11/05 02:42:27;;;;;;;;;7.75;6.00;;;;;23.12;42.94;101716.13;5001851;28;45400;-72
2022/11/05 02:45:14;;;;;;;;;4.33;3.67;;;;;23.12;42.96;101706.34;5013179;28;46296;-72
2022/11/05 02:47:54;;;;;;;;;4.33;4.33;;;;;23.10;42.65;101703.03;5013657;28;45507;-70
2022/11/05 02:50:32;;;;;;;;;4.00;4.00;;;;;23.11;42.82;101698.56;5012635;28;45330;-72
2022/11/05 02:53:09;;;;;;;;;4.33;4.33;;;;;23.10;42.91;101696.88;5013004;28;45491;-72
2022/11/05 02:55:46;;;;;;;;;5.00;4.00;;;;;23.10;42.84;101692.41;4996419;28;46215;-70
2022/11/05 02:58:11;;;;;;;;;3.75;3.75;;;;;23.10;42.90;101691.56;5012894;28;45584;-72
2022/11/05 03:00:42;;;;;;;;;2.67;2.67;;;;;23.09;42.66;101690.75;5013560;28;45254;-72
2022/11/05 03:03:16;;;;;;;;;6.67;4.00;;;;;23.10;43.13;101689.75;5013484;28;46743;-72
2022/11/05 03:05:59;;;;;;;;;3.75;3.75;;;;;23.09;42.47;101690.75;5024860;28;46127;-72
2022/11/05 03:09:14;;;;;;;;;5.67;3.00;;;;;23.09;42.69;101697.88;5022762;28;45535;-72
2022/11/05 03:12:00;;;;;;;;;4.67;4.67;;;;;23.08;42.45;101705.03;5007320;28;45549;-71
2022/11/05 03:14:31;;;;;;;;;3.33;3.33;;;;;23.07;43.10;101698.06;5012919;28;45432;-72
2022/11/05 03:17:15;;;;;;;;;2.67;2.67;;;;;23.05;43.04;101695.56;5014008;28;46198;-72
2022/11/05 03:20:00;;;;;;;;;4.33;4.00;;;;;23.05;42.89;101698.22;5012670;28;45406;-72
2022/11/05 03:22:33;;;;;;;;;4.00;4.00;;;;;23.05;42.77;101700.88;5012630;28;45381;-72
2022/11/05 03:25:04;;;;;;;;;3.00;3.00;;;;;23.00;42.81;101687.28;5013023;28;45352;-72
2022/11/05 03:27:33;;;;;;;;;5.00;3.00;;;;;23.08;42.28;101697.06;5012743;28;47324;-72
2022/11/05 03:30:10;;;;;;;;;5.67;5.67;;;;;23.08;42.72;101699.72;5012858;28;45482;-72
2022/11/05 03:32:41;;;;;;;;;4.75;4.75;;;;;23.10;42.84;101705.69;5012724;28;45255;-72
2022/11/05 03:35:15;;;;;;;;;6.33;4.67;;;;;23.07;42.56;101708.66;5012556;28;45536;-72
2022/11/05 03:37:45;;;;;;;;;5.00;3.67;;;;;23.11;42.39;101706.53;5012321;28;45448;-72
2022/11/05 03:40:13;;;;;;;;;4.00;3.33;;;;;23.10;42.31;101700.38;5012377;28;45282;-71
2022/11/05 03:42:44;;;;;;;;;3.00;3.00;;;;;23.01;42.77;101682.78;5012806;28;45519;-72
2022/11/05 03:45:20;;;;;;;;;4.00;3.00;;;;;23.12;42.50;101706.34;5012573;28;45457;-72
2022/11/05 03:47:49;;;;;;;;;3.75;3.75;;;;;23.12;42.64;101700.19;5019187;28;45401;-71
2022/11/05 03:50:22;;;;;;;;;2.67;2.67;;;;;23.11;42.65;101703.88;5022723;28;45298;-71
2022/11/05 03:52:52;;;;;;;;;5.00;3.67;;;;;23.10;42.90;101696.88;5034933;28;45315;-72
2022/11/05 03:55:23;;;;;;;;;2.33;2.33;;;;;23.07;42.31;101698.88;5029517;28;45321;-72
2022/11/05 03:57:53;;;;;;;;;4.67;3.67;;;;;23.07;42.51;101704.19;5019338;28;46853;-72
2022/11/05 04:00:20;;;;;;;;;5.33;3.67;;;;;23.06;42.57;101697.22;5029909;28;45471;-72
2022/11/05 04:02:45;;;;;;;;;4.50;4.25;;;;;23.06;42.22;101694.56;5034033;28;45452;-71
2022/11/05 04:05:11;;;;;;;;;4.00;4.00;;;;;23.06;42.86;101694.56;5030836;28;50197;-72
2022/11/05 04:18:33;;;;;;;;;2.00;2.00;;;;;23.03;42.83;101702.84;5018916;28;45486;-72
2022/11/05 04:26:26;;;;;;;;;3.67;3.00;;;;;23.04;42.61;101717.78;5025128;28;45523;-72
2022/11/05 04:31:36;;;;;;;;;3.33;3.33;;;;;23.04;42.59;101719.59;5027685;28;45535;-72
2022/11/05 04:34:02;;;;;;;;;4.00;4.00;;;;;22.98;42.84;101709.66;5019979;28;45501;-72
2022/11/05 04:36:27;;;;;;;;;3.00;3.00;;;;;22.98;42.83;101714.97;5017786;28;45505;-72
2022/11/05 04:38:53;;;;;;;;;2.75;2.75;;;;;23.00;42.56;101712.97;5031237;28;46292;-72
2022/11/05 04:41:18;;;;;;;;;5.00;5.00;;;;;23.04;42.81;101722.25;5031824;28;45324;-72
2022/11/05 04:43:43;;;;;;;;;3.67;3.67;;;;;23.04;42.64;101722.25;5018063;28;45522;-72
2022/11/05 04:46:09;;;;;;;;;8.50;5.75;;;;;22.93;42.68;101702.19;5017609;28;45433;-72
2022/11/05 04:48:35;;;;;;;;;4.00;2.67;;;;;23.00;42.37;101710.31;5016886;28;46327;-72
2022/11/05 04:51:01;;;;;;;;;5.33;4.00;;;;;22.98;42.82;101710.47;5027186;28;45384;-72
2022/11/05 04:53:26;;;;;;;;;4.00;4.00;;;;;23.00;42.69;101702.38;5022989;28;45797;-72
2022/11/05 04:55:52;;;;;;;;;6.67;2.67;;;;;23.02;42.55;101708.34;5037501;28;45278;-71
2022/11/05 04:58:17;;;;;;;;;4.00;3.67;;;;;23.02;42.22;101708.34;5022864;28;45364;-72
2022/11/05 05:00:42;;;;;;;;;4.33;2.67;;;;;23.01;42.38;101710.16;5029228;28;45376;-72
2022/11/05 05:03:08;;;;;;;;;5.00;4.33;;;;;23.02;42.25;101711.00;5019030;28;45456;-73
2022/11/05 05:05:33;;;;;;;;;4.33;3.33;;;;;23.03;42.73;101712.66;5037034;28;45336;-72
2022/11/05 05:08:05;;;;;;;;;3.67;3.67;;;;;22.92;42.65;101693.41;5028862;28;45384;-72
2022/11/05 05:10:31;;;;;;;;;5.67;3.67;;;;;23.04;42.41;101712.47;5027193;28;45462;-70
2022/11/05 05:12:57;;;;;;;;;3.67;3.67;;;;;23.03;42.29;101717.97;5037237;28;45280;-72
2022/11/05 05:15:22;;;;;;;;;3.67;3.67;;;;;22.97;42.47;101700.88;5022919;28;45223;-72
2022/11/05 05:17:51;;;;;;;;;6.33;2.67;;;;;22.99;42.13;101706.84;5026913;28;45305;-72
2022/11/05 05:23:02;;;;;;;;;4.00;3.67;;;;;23.01;42.79;101706.66;5025938;28;45412;-72
2022/11/05 05:25:28;;;;;;;;;4.00;4.00;;;;;22.99;42.53;101712.16;5016456;28;45550;-72
2022/11/05 05:27:56;;;;;;;;;5.00;4.67;;;;;23.00;42.28;101705.03;5017096;28;46148;-72
2022/11/05 05:30:22;;;;;;;;;0.67;0.67;;;;;23.00;42.74;101712.97;5022767;28;45417;-72
2022/11/05 05:32:47;;;;;;;;;4.67;4.00;;;;;22.99;42.47;101717.47;5016441;28;45437;-72
2022/11/05 05:35:12;;;;;;;;;5.00;5.00;;;;;22.99;42.30;101717.47;5020327;28;45249;-72
2022/11/05 05:37:38;;;;;;;;;4.00;4.00;;;;;22.97;42.64;101708.84;5029622;28;47273;-72
2022/11/05 05:40:03;;;;;;;;;5.00;3.00;;;;;23.01;42.50;101717.28;5022296;28;45306;-72
2022/11/05 05:42:29;;;;;;;;;2.33;2.33;;;;;22.99;42.21;101716.63;5025111;28;45419;-72
2022/11/05 05:44:54;;;;;;;;;3.67;3.33;;;;;22.98;42.13;101721.09;5021297;28;45385;-72
2022/11/05 05:47:19;;;;;;;;;4.00;2.67;;;;;22.98;42.26;101721.09;5016429;28;46201;-72
2022/11/05 05:49:45;;;;;;;;;3.33;3.33;;;;;22.98;42.32;101734.38;5016225;28;49565;-72
2022/11/05 05:52:10;;;;;;;;;2.33;2.33;;;;;22.98;42.71;101721.09;5024003;28;45421;-72
2022/11/05 05:54:35;;;;;;;;;4.00;4.00;;;;;22.95;42.80;101713.50;5036440;28;45541;-72
2022/11/05 05:57:01;;;;;;;;;3.00;3.00;;;;;22.94;42.32;101717.13;5036093;28;46230;-72
2022/11/05 05:59:27;;;;;;;;;4.67;4.67;;;;;22.87;42.53;101706.34;5039436;28;45420;-71
2022/11/05 06:01:52;;;;;;;;;3.00;3.00;;;;;22.99;42.29;101720.09;5038582;28;45343;-72
2022/11/05 06:04:18;;;;;;;;;5.00;5.00;;;;;22.95;42.81;101718.78;5036609;28;45337;-72
2022/11/05 06:06:45;;;;;;;;;2.00;2.00;;;;;22.98;42.76;101725.59;5036162;28;46215;-72
2022/11/05 06:09:11;;;;;;;;;3.67;3.67;;;;;22.98;42.75;101728.25;5035907;28;45649;-72
2022/11/05 06:11:36;;;;;;;;;4.33;3.00;;;;;22.98;42.52;101728.25;5036547;28;45418;-72
2022/11/05 06:14:02;;;;;;;;;4.67;3.67;;;;;22.91;42.61;101717.44;5034812;28;47524;-72
2022/11/05 06:16:27;;;;;;;;;5.50;3.75;;;;;22.95;42.06;101740.03;5040647;28;46153;-72
2022/11/05 06:18:52;;;;;;;;;3.00;3.00;;;;;22.94;42.41;101739.19;5037201;28;45249;-72
2022/11/05 06:21:18;;;;;;;;;5.33;3.33;;;;;22.95;42.64;101745.34;5036074;28;45239;-72
2022/11/05 06:23:44;;;;;;;;;4.50;3.50;;;;;22.95;42.71;101745.34;5036090;28;45413;-72
2022/11/05 06:26:13;;;;;;;;;6.67;4.67;;;;;22.95;42.45;101754.09;5045667;28;47128;-72
2022/11/05 06:28:38;;;;;;;;;3.00;3.00;;;;;22.95;42.63;101748.78;5036071;28;45448;-72
2022/11/05 06:31:04;;;;;;;;;3.67;3.00;;;;;22.95;42.81;101755.94;5035601;28;45476;-72
2022/11/05 06:33:29;;;;;;;;;7.00;4.00;;;;;22.96;42.26;101757.59;5035909;28;45514;-71
2022/11/05 06:35:59;;;;;;;;;4.67;2.67;;;;;22.98;42.42;101752.13;5035890;28;46194;-71
2022/11/05 06:38:25;;;;;;;;;3.00;3.00;;;;;22.98;42.52;101752.94;5035895;28;45411;-72
2022/11/05 06:40:50;;;;;;;;;3.00;3.00;;;;;22.98;42.09;101752.94;5035572;28;45443;-72
2022/11/05 06:43:15;;;;;;;;;3.67;3.67;;;;;22.98;42.40;101747.63;5017805;28;45223;-71
2022/11/05 06:45:41;;;;;;;;;4.67;4.00;;;;;22.99;41.99;101741.34;5015587;28;45998;-72
2022/11/05 06:48:06;;;;;;;;;4.00;4.00;;;;;23.00;42.68;101740.34;5016688;28;45293;-70
2022/11/05 06:50:32;;;;;;;;;4.67;3.67;;;;;22.96;42.40;101737.19;5028968;28;45354;-72
2022/11/05 06:53:00;;;;;;;;;3.67;3.67;;;;;22.98;42.34;101733.56;5021782;28;45408;-70
2022/11/05 06:55:28;;;;;;;;;5.67;3.00;;;;;22.98;42.36;101734.38;5016780;28;46986;-71
2022/11/05 06:57:54;;;;;;;;;6.33;4.67;;;;;22.99;42.62;101737.84;5028201;28;45412;-72
2022/11/05 07:00:20;;;;;;;;;4.00;4.00;;;;;22.96;42.64;101742.50;5030236;28;45446;-72
2022/11/05 07:02:45;;;;;;;;;2.67;2.67;;;;;22.95;42.17;101740.81;5015313;28;45345;-71
2022/11/05 07:05:12;;;;;;;;;2.67;2.67;;;;;22.96;42.26;101744.31;5023403;28;45925;-72
2022/11/05 07:07:38;;;;;;;;;3.67;3.67;;;;;22.96;42.03;101749.63;5015555;28;45497;-73
2022/11/05 07:10:05;;;;;;;;;3.00;3.00;;;;;22.95;42.57;101742.69;5017465;28;45317;-72
2022/11/05 07:12:30;;;;;;;;;3.00;3.00;;;;;22.95;42.34;101747.97;5015498;28;45419;-72
2022/11/05 07:14:55;;;;;;;;;3.67;3.33;;;;;22.87;42.47;101735.53;5014873;28;46102;-72
2022/11/05 07:17:21;;;;;;;;;3.00;3.00;;;;;22.95;42.39;101763.91;5016614;28;45371;-72
2022/11/05 07:19:47;;;;;;;;;4.00;2.67;;;;;22.94;42.24;101763.06;5026152;28;45443;-72
2022/11/05 07:22:12;;;;;;;;;5.67;3.00;;;;;22.94;42.19;101754.28;5027456;28;45712;-72
2022/11/05 07:24:37;;;;;;;;;4.00;4.00;;;;;22.95;42.05;101769.22;5028208;28;45924;-72
2022/11/05 07:27:02;;;;;;;;;4.67;3.33;;;;;22.95;42.16;101764.72;5033608;28;45228;-72
2022/11/05 07:29:28;;;;;;;;;3.00;3.00;;;;;22.85;42.58;101750.75;5034934;28;45260;-72
2022/11/05 07:31:53;;;;;;;;;3.00;3.00;;;;;22.95;42.62;101774.53;5034998;28;48469;-72
2022/11/05 07:34:18;;;;;;;;;3.00;3.00;;;;;22.95;42.10;101767.38;5030225;28;46071;-72
2022/11/05 07:36:44;;;;;;;;;3.00;3.00;;;;;22.95;42.12;101764.72;5026376;28;45598;-73
2022/11/05 07:39:09;;;;;;;;;3.67;3.67;;;;;22.94;42.66;101771.03;5035950;28;45367;-72
2022/11/05 07:41:34;;;;;;;;;3.33;3.33;;;;;22.95;42.13;101766.56;5036889;28;45297;-72
2022/11/05 07:44:00;;;;;;;;;2.33;2.33;;;;;22.93;42.33;101765.88;5038109;28;46094;-72
2022/11/05 07:46:25;;;;;;;;;3.00;3.00;;;;;22.95;42.46;101769.22;5024106;28;45357;-72
2022/11/05 07:48:50;;;;;;;;;2.33;2.33;;;;;22.88;42.47;101762.88;5042485;28;45796;-72
2022/11/05 07:51:16;;;;;;;;;2.67;1.33;;;;;22.91;42.06;101767.88;5032780;28;45471;-72
2022/11/05 07:53:41;;;;;;;;;4.33;3.00;;;;;22.94;42.47;101775.50;5033153;28;46731;-71
2022/11/05 07:56:07;;;;;;;;;2.00;2.00;;;;;22.90;42.58;101761.72;5026258;28;45431;-70
2022/11/05 07:58:35;;;;;;;;;3.00;3.00;;;;;22.93;42.06;101771.19;5031770;28;45333;-72
2022/11/05 08:01:01;;;;;;;;;4.00;4.00;;;;;22.93;42.13;101776.50;5037168;28;45424;-72
2022/11/05 08:03:26;;;;;;;;;3.00;2.67;;;;;22.93;42.53;101776.50;5021626;28;46112;-71
2022/11/05 08:05:51;;;;;;;;;2.00;2.00;;;;;22.94;41.99;101776.34;5040498;28;45258;-72
2022/11/05 08:08:18;;;;;;;;;4.00;3.00;;;;;22.94;42.40;101781.66;5032243;28;45215;-71
2022/11/05 08:10:44;;;;;;;;;6.00;4.00;;;;;22.95;42.47;101783.28;5018380;28;45481;-70
2022/11/05 08:13:11;;;;;;;;;3.67;2.67;;;;;22.90;42.17;101772.34;5025470;28;47379;-71
2022/11/05 08:15:37;;;;;;;;;4.00;4.00;;;;;22.95;42.41;101787.78;5036320;28;45428;-71
2022/11/05 08:18:05;;;;;;;;;2.67;2.67;;;;;22.94;42.13;101784.31;5027355;28;45366;-70
2022/11/05 08:20:31;;;;;;;;;2.67;2.67;;;;;22.94;41.94;101781.66;5030846;28;45628;-72
2022/11/05 08:22:56;;;;;;;;;4.67;2.33;;;;;22.90;42.39;101772.34;5034246;28;45943;-72
2022/11/05 08:25:22;;;;;;;;;2.33;2.33;;;;;22.94;42.05;101788.78;5029769;28;45509;-72
2022/11/05 08:27:58;;;;;;;;;5.33;3.00;;;;;22.93;42.37;101784.44;5037616;28;45321;-72
2022/11/05 08:30:24;;;;;;;;;3.67;3.00;;;;;22.92;42.61;101782.81;5037619;28;45549;-72
2022/11/05 08:32:49;;;;;;;;;5.00;3.33;;;;;22.92;42.58;101780.97;5037702;28;45313;-73
2022/11/05 08:35:15;;;;;;;;;2.67;2.67;;;;;22.93;42.60;101773.84;5037790;28;45286;-71
2022/11/05 08:37:40;;;;;;;;;4.33;3.33;;;;;22.92;42.49;101774.84;5037647;28;45391;-71
2022/11/05 08:40:06;;;;;;;;;6.00;4.00;;;;;22.94;41.90;101783.47;5037091;28;45371;-72
2022/11/05 08:42:31;;;;;;;;;1.67;1.67;;;;;22.93;42.21;101785.28;5025619;28;46160;-71
2022/11/05 08:44:57;;;;;;;;;4.67;4.67;;;;;22.92;42.33;101780.97;5017316;28;45520;-72
2022/11/05 08:47:22;;;;;;;;;2.00;2.00;;;;;22.79;42.47;101762.06;5020268;28;46549;-71
2022/11/05 08:49:48;;;;;;;;;4.33;2.67;;;;;22.93;42.08;101782.63;5018476;28;45375;-72
2022/11/05 08:52:13;;;;;;;;;2.67;2.67;;;;;22.95;42.35;101782.47;5037063;28;45632;-72
2022/11/05 08:54:39;;;;;;;;;4.00;3.00;;;;;22.93;42.25;101781.78;5037192;28;45434;-71
2022/11/05 08:57:04;;;;;;;;;2.33;2.00;;;;;22.94;42.54;101783.47;5036387;28;45318;-72
2022/11/05 08:59:30;;;;;;;;;4.00;4.00;;;;;22.94;42.05;101786.97;5035713;28;45325;-72
2022/11/05 09:01:55;;;;;;;;;2.67;2.67;;;;;22.89;42.38;101781.31;5036949;28;45341;-72
2022/11/05 09:04:21;;;;;;;;;2.33;2.33;;;;;22.93;42.11;101787.09;5031188;28;45411;-72
2022/11/05 09:06:47;;;;;;;;;4.00;3.25;;;;;22.92;42.46;101785.47;5021496;28;45267;-72
2022/11/05 09:09:12;;;;;;;;;1.67;1.67;;;;;22.92;42.22;101778.34;5024701;28;45355;-72
2022/11/05 09:11:37;;;;;;;;;2.33;2.33;;;;;22.93;42.14;101777.31;5037168;28;47325;-72
2022/11/05 09:14:03;;;;;;;;;2.00;2.00;;;;;22.94;42.24;101788.78;5031317;28;45434;-72
2022/11/05 09:16:28;;;;;;;;;2.00;2.00;;;;;22.89;41.89;101777.81;5017321;28;45443;-72
2022/11/05 09:18:55;;;;;;;;;1.67;1.67;;;;;22.92;42.41;101777.50;5021626;28;45560;-71
2022/11/05 09:21:20;;;;;;;;;2.00;2.00;;;;;22.93;42.44;101781.78;5036053;28;47213;-73
2022/11/05 09:23:46;;;;;;;;;1.67;1.67;;;;;22.84;42.36;101765.88;5020570;28;45302;-71
2022/11/05 09:26:13;;;;;;;;;3.33;2.67;;;;;22.87;42.30;101779.81;5021286;28;45364;-70
2022/11/05 09:28:39;;;;;;;;;2.67;2.67;;;;;22.92;42.46;101785.47;5023536;28;45340;-72
2022/11/05 09:31:09;;;;;;;;;3.67;2.67;;;;;22.93;41.86;101787.09;5029460;28;46026;-71
2022/11/05 09:33:37;;;;;;;;;2.00;2.00;;;;;22.93;42.28;101782.63;5029364;28;45341;-72
2022/11/05 09:36:03;;;;;;;;;2.00;2.00;;;;;22.93;42.09;101774.66;5032341;28;45419;-72
2022/11/05 09:38:35;;;;;;;;;3.00;3.00;;;;;22.94;41.84;101784.31;5026770;28;45389;-72
2022/11/05 09:41:07;;;;;;;;;3.00;3.00;;;;;22.94;42.34;101778.16;5032735;28;46017;-71
2022/11/05 09:43:39;;;;;;;;;1.67;1.67;;;;;22.94;41.95;101778.16;5036721;28;45363;-72
2022/11/05 09:46:24;;;;;;;;;2.00;2.00;;;;;22.95;41.94;101779.81;5029853;28;45416;-72
2022/11/05 09:49:06;;;;;;;;;1.33;1.33;;;;;22.95;42.24;101777.97;5008500;28;45519;-72
2022/11/05 09:51:34;;;;;;;;;3.33;2.00;;;;;22.94;42.26;101781.66;5029100;28;45530;-70
2022/11/05 09:54:00;;;;;;;;;2.00;2.00;;;;;22.95;42.12;101782.47;5025832;28;45356;-72
2022/11/05 09:56:30;;;;;;;;;3.00;3.00;;;;;22.96;42.15;101784.13;5034670;28;45393;-70
2022/11/05 09:59:03;;;;;;;;;3.67;2.33;;;;;22.91;41.99;101776.66;5019034;28;45345;-71
2022/11/05 10:01:33;;;;;;;;;3.00;3.00;;;;;22.97;42.17;101788.44;5034535;28;45927;-72
2022/11/05 10:04:04;;;;;;;;;5.00;3.67;;;;;22.90;42.11;101774.19;5017249;28;45418;-72
2022/11/05 10:06:30;;;;;;;;;1.67;1.67;;;;;22.96;42.32;101784.13;5016374;28;45477;-79
2022/11/05 10:09:00;;;;;;;;;2.67;2.67;;;;;22.98;42.25;101791.94;5030297;28;45697;-73
2022/11/05 10:11:36;;;;;;;;;3.00;3.00;;;;;22.97;42.51;101783.16;5020980;28;48711;-72
2022/11/05 10:14:34;;;;;;;;;5.00;5.00;;;;;22.98;42.50;101783.97;5020344;28;45316;-71
2022/11/05 10:17:09;;;;;;;;;5.67;5.00;;;;;23.00;41.73;101792.59;5032061;28;45367;-72
2022/11/05 10:19:46;;;;;;;;;5.25;3.50;;;;;22.73;38.35;101785.59;5035742;28;45588;-72
2022/11/05 10:22:17;;;;;;;;;5.00;5.00;;;;;22.36;39.27;101792.88;5033738;28;48343;-72
2022/11/05 10:24:46;;;;;;;;;4.67;4.67;;;;;22.18;40.21;101782.38;5035888;28;45359;-72
2022/11/05 10:27:31;;;;;;;;;6.00;3.67;;;;;22.21;39.92;101778.56;5035656;28;45393;-72
2022/11/05 10:29:57;;;;;;;;;5.00;4.00;;;;;22.24;40.79;101780.91;5036025;28;45430;-71
2022/11/05 10:32:38;;;;;;;;;4.00;4.00;;;;;22.28;40.83;101774.28;5034707;28;46129;-73
2022/11/05 10:35:06;;;;;;;;;6.00;4.00;;;;;22.32;41.11;101765.03;5025408;28;45301;-76
2022/11/05 10:37:32;;;;;;;;;7.67;5.00;;;;;22.38;40.96;101763.56;5020832;28;45462;-76
2022/11/05 10:39:58;;;;;;;;;4.00;4.00;;;;;22.42;40.67;101764.06;5020469;28;45495;-72
2022/11/05 10:42:36;;;;;;;;;8.00;4.00;;;;;22.46;41.44;101766.22;5033135;28;47219;-72
2022/11/05 10:45:23;;;;;;;;;2.67;2.67;;;;;22.51;41.14;101760.44;5016951;28;45249;-72
2022/11/05 10:47:57;;;;;;;;;5.33;1.67;;;;;22.43;40.89;101731.28;5015565;28;45510;-72
2022/11/05 10:50:26;;;;;;;;;4.50;3.50;;;;;22.56;41.46;101758.13;5024700;28;45362;-73
2022/11/05 10:52:57;;;;;;;;;3.00;3.00;;;;;22.58;40.97;101753.53;5028786;28;47108;-72
2022/11/05 10:55:33;;;;;;;;;4.00;2.67;;;;;22.61;41.23;101752.38;5015643;28;45468;-74
2022/11/05 10:58:16;;;;;;;;;5.00;5.00;;;;;22.54;40.13;101749.53;5033966;28;45279;-72
2022/11/05 11:00:44;;;;;;;;;7.00;4.67;;;;;22.46;40.45;101754.78;5030364;28;45292;-72
2022/11/05 11:03:31;;;;;;;;;8.75;3.75;;;;;22.45;41.32;101759.28;5021626;28;45285;-73
2022/11/05 11:06:03;;;;;;;;;6.00;4.00;;;;;22.44;41.42;101748.81;5020564;28;45474;-73
2022/11/05 11:08:32;;;;;;;;;5.00;2.67;;;;;22.54;41.52;101756.63;5033744;28;45432;-73
2022/11/05 11:11:02;;;;;;;;;4.33;4.33;;;;;22.57;41.12;101757.16;5023436;28;45501;-73
2022/11/05 11:13:48;;;;;;;;;4.67;3.67;;;;;22.62;41.39;101754.84;5025006;28;47443;-73
2022/11/05 11:16:21;;;;;;;;;5.67;2.67;;;;;22.65;41.33;101748.38;5019106;28;45274;-73
2022/11/05 11:18:52;;;;;;;;;3.00;2.67;;;;;22.68;40.99;101742.75;5020102;28;45380;-73
2022/11/05 11:21:21;;;;;;;;;7.33;3.67;;;;;22.68;41.11;101744.59;5027672;28;45304;-73
2022/11/05 11:24:01;;;;;;;;;3.67;2.67;;;;;22.71;41.75;101745.13;5024300;28;46414;-73
2022/11/05 11:26:36;;;;;;;;;7.75;3.25;;;;;22.76;41.25;101747.28;5038406;28;45302;-72
2022/11/05 11:29:26;;;;;;;;;4.67;3.00;;;;;22.78;41.60;101747.13;5035801;28;45612;-73
2022/11/05 11:31:54;;;;;;;;;6.67;4.67;;;;;22.80;41.27;101742.47;5018783;28;45377;-72
2022/11/05 11:34:35;;;;;;;;;4.00;2.00;;;;;22.81;41.31;101736.19;5017792;28;47314;-72
2022/11/05 11:37:08;;;;;;;;;2.67;2.67;;;;;22.71;41.46;101723.91;5031230;28;45497;-73
2022/11/05 11:39:37;;;;;;;;;2.33;2.00;;;;;22.83;41.65;101740.34;5020355;28;45306;-72
2022/11/05 11:42:12;;;;;;;;;2.33;2.33;;;;;22.83;41.33;101729.72;5030306;28;45384;-72
2022/11/05 11:44:45;;;;;;;;;3.33;1.33;;;;;22.80;41.65;101727.38;5022313;28;47551;-72
2022/11/05 11:47:16;;;;;;;;;3.33;3.33;;;;;22.87;41.52;101726.75;5033834;28;45438;-72
2022/11/05 11:49:46;;;;;;;;;2.67;2.67;;;;;22.88;41.49;101729.22;5031140;28;45416;-72
2022/11/05 11:52:32;;;;;;;;;4.33;3.33;;;;;22.79;41.80;101699.22;5018360;28;45388;-71
2022/11/05 11:55:20;;;;;;;;;4.00;3.00;;;;;22.89;41.32;101706.16;5029787;28;46343;-73
2022/11/05 11:58:03;;;;;;;;;4.33;3.00;;;;;22.88;41.47;101701.84;5018247;28;45354;-72
2022/11/05 12:00:31;;;;;;;;;2.67;2.67;;;;;22.89;41.74;101695.56;5031909;28;45482;-73
2022/11/05 12:03:08;;;;;;;;;1.67;1.67;;;;;22.89;42.02;101696.41;5020044;28;45289;-73
2022/11/05 12:05:46;;;;;;;;;3.00;3.00;;;;;22.89;42.14;101691.09;5017975;28;45434;-72
2022/11/05 12:08:20;;;;;;;;;3.33;2.67;;;;;22.90;41.76;101684.78;5018340;28;45326;-72
2022/11/05 12:11:17;;;;;;;;;5.67;3.67;;;;;22.91;41.46;101678.47;5024225;28;45360;-72
2022/11/05 12:14:03;;;;;;;;;3.67;2.67;;;;;22.92;41.47;101684.63;5029997;28;45745;-73
2022/11/05 12:16:36;;;;;;;;;3.00;3.00;;;;;22.92;42.11;101681.97;5018016;28;47191;-73
2022/11/05 12:19:23;;;;;;;;;7.00;2.67;;;;;22.93;41.60;101691.56;5036907;28;45419;-73
2022/11/05 12:21:55;;;;;;;;;2.33;1.67;;;;;22.91;41.67;101681.13;5037705;28;45387;-73